createdAt,value
2022-08-25T00:00:20.530Z,17.30
2022-08-25T00:02:51.643Z,17.30
2022-08-25T00:05:29.108Z,17.30
2022-08-25T00:07:58.465Z,17.30
2022-08-25T00:10:26.321Z,17.20
2022-08-25T00:12:54.579Z,17.20
2022-08-25T00:15:23.950Z,17.20
2022-08-25T00:17:51.939Z,17.10
2022-08-25T00:20:20.257Z,17.10
2022-08-25T00:22:49.016Z,17.00
2022-08-25T00:25:17.094Z,17.00
2022-08-25T00:27:45.816Z,17.00
2022-08-25T00:30:16.634Z,17.00
2022-08-25T00:32:48.916Z,17.10
2022-08-25T00:35:23.858Z,17.10
2022-08-25T00:37:51.502Z,17.10
2022-08-25T00:40:19.138Z,17.10
2022-08-25T00:42:46.994Z,17.10
2022-08-25T00:45:14.692Z,17.10
2022-08-25T00:47:42.478Z,17.00
2022-08-25T00:50:11.180Z,17.00
2022-08-25T00:52:44.921Z,17.00
2022-08-25T00:55:21.575Z,17.00
2022-08-25T00:57:55.446Z,16.90
2022-08-25T01:00:28.715Z,17.00
2022-08-25T01:02:57.939Z,17.00
2022-08-25T01:05:27.153Z,17.00
2022-08-25T01:07:58.761Z,16.90
2022-08-25T01:10:31.900Z,16.90
2022-08-25T01:13:26.422Z,16.80
2022-08-25T01:15:56.296Z,16.60
2022-08-25T01:18:25.063Z,16.50
2022-08-25T01:20:54.859Z,16.40
2022-08-25T01:23:24.745Z,16.40
2022-08-25T01:26:09.881Z,16.30
2022-08-25T01:28:38.448Z,16.30
2022-08-25T01:31:23.738Z,16.20
2022-08-25T01:33:52.167Z,16.20
2022-08-25T01:36:21.325Z,16.20
2022-08-25T01:38:49.298Z,16.20
2022-08-25T01:41:25.880Z,16.20
2022-08-25T01:43:53.482Z,16.10
2022-08-25T01:46:21.259Z,16.00
2022-08-25T01:48:49.002Z,16.00
2022-08-25T01:51:19.216Z,16.00
2022-08-25T01:53:47.019Z,16.00
2022-08-25T01:56:16.628Z,15.90
2022-08-25T01:58:49.752Z,15.90
2022-08-25T02:01:21.023Z,15.90
2022-08-25T02:03:51.383Z,15.90
2022-08-25T02:06:28.884Z,15.90
2022-08-25T02:09:01.162Z,15.90
2022-08-25T02:11:29.024Z,15.90
2022-08-25T02:13:56.637Z,15.90
2022-08-25T02:16:28.605Z,15.90
2022-08-25T02:18:57.093Z,15.80
2022-08-25T02:21:25.303Z,15.80
2022-08-25T02:23:53.579Z,15.80
2022-08-25T02:26:21.187Z,15.80
2022-08-25T02:28:50.941Z,15.80
2022-08-25T02:31:21.760Z,15.80
2022-08-25T02:33:50.498Z,15.80
2022-08-25T02:36:19.204Z,15.80
2022-08-25T02:38:47.265Z,15.90
2022-08-25T02:41:20.935Z,15.90
2022-08-25T02:43:49.919Z,15.90
2022-08-25T02:46:19.995Z,15.90
2022-08-25T02:48:47.869Z,15.90
2022-08-25T02:51:15.568Z,15.90
2022-08-25T02:53:46.040Z,15.90
2022-08-25T02:56:15.273Z,15.90
2022-08-25T02:58:43.297Z,15.90
2022-08-25T03:01:12.111Z,15.80
2022-08-25T03:03:40.711Z,15.80
2022-08-25T03:06:11.348Z,15.80
2022-08-25T03:08:39.961Z,15.80
2022-08-25T03:11:07.912Z,15.70
2022-08-25T03:13:35.861Z,15.70
2022-08-25T03:16:05.384Z,15.70
2022-08-25T03:18:40.900Z,15.70
2022-08-25T03:21:09.813Z,15.70
2022-08-25T03:23:37.484Z,15.70
2022-08-25T03:26:23.694Z,15.70
2022-08-25T03:28:51.450Z,15.70
2022-08-25T03:31:19.295Z,15.70
2022-08-25T03:33:46.980Z,15.60
2022-08-25T03:36:14.948Z,15.70
2022-08-25T03:38:43.148Z,15.60
2022-08-25T03:41:20.528Z,15.60
2022-08-25T03:43:48.896Z,15.60
2022-08-25T03:46:19.587Z,15.50
2022-08-25T03:48:48.841Z,15.50
2022-08-25T03:51:33.702Z,15.60
2022-08-25T03:54:02.484Z,15.60
2022-08-25T03:56:30.634Z,15.60
2022-08-25T03:58:58.502Z,15.50
2022-08-25T04:01:27.340Z,15.50
2022-08-25T04:03:55.285Z,15.50
2022-08-25T04:06:23.409Z,15.50
2022-08-25T04:08:52.956Z,15.50
2022-08-25T04:11:23.253Z,15.40
2022-08-25T04:13:52.460Z,15.40
2022-08-25T04:16:23.771Z,15.40
2022-08-25T04:18:53.840Z,15.40
2022-08-25T04:21:22.902Z,15.40
2022-08-25T04:23:52.175Z,15.40
2022-08-25T04:26:37.320Z,15.40
2022-08-25T04:29:07.854Z,15.40
2022-08-25T04:31:36.191Z,15.40
2022-08-25T04:34:14.312Z,15.40
2022-08-25T04:36:53.569Z,15.30
2022-08-25T04:39:21.785Z,15.40
2022-08-25T04:41:50.545Z,15.40
2022-08-25T04:44:18.154Z,15.40
2022-08-25T04:46:46.038Z,15.40
2022-08-25T04:49:13.629Z,15.40
2022-08-25T04:51:41.998Z,15.40
2022-08-25T04:54:13.059Z,15.30
2022-08-25T04:56:41.400Z,15.40
2022-08-25T04:59:12.217Z,15.40
2022-08-25T05:01:41.878Z,15.40
2022-08-25T05:04:12.421Z,15.30
2022-08-25T05:06:55.410Z,15.30
2022-08-25T05:09:23.360Z,15.30
2022-08-25T05:11:54.514Z,15.30
2022-08-25T05:14:26.436Z,15.30
2022-08-25T05:16:58.074Z,15.30
2022-08-25T05:19:26.868Z,15.30
2022-08-25T05:21:54.593Z,15.30
2022-08-25T05:24:26.168Z,15.40
2022-08-25T05:26:53.969Z,15.40
2022-08-25T05:29:21.998Z,15.40
2022-08-25T05:31:50.935Z,15.40
2022-08-25T05:34:19.974Z,15.40
2022-08-25T05:36:48.839Z,15.40
2022-08-25T05:39:16.485Z,15.40
2022-08-25T05:41:44.419Z,15.40
2022-08-25T05:44:15.116Z,15.40
2022-08-25T05:46:45.619Z,15.40
2022-08-25T05:49:13.195Z,15.40
2022-08-25T05:51:41.025Z,15.40
2022-08-25T05:54:08.682Z,15.50
2022-08-25T05:56:36.352Z,15.50
2022-08-25T05:59:08.676Z,15.50
2022-08-25T06:01:55.588Z,15.60
2022-08-25T06:04:23.403Z,15.60
2022-08-25T06:06:53.911Z,15.60
2022-08-25T06:09:22.543Z,15.60
2022-08-25T06:11:54.521Z,15.60
2022-08-25T06:14:24.050Z,15.60
2022-08-25T06:16:52.151Z,15.60
2022-08-25T06:19:20.492Z,15.60
2022-08-25T06:21:48.140Z,15.60
2022-08-25T06:24:16.005Z,15.60
2022-08-25T06:26:44.358Z,15.70
2022-08-25T06:29:14.254Z,15.70
2022-08-25T06:31:43.228Z,15.70
2022-08-25T06:34:11.696Z,15.70
2022-08-25T06:36:39.764Z,15.70
2022-08-25T06:39:08.059Z,15.70
2022-08-25T06:41:39.107Z,15.70
2022-08-25T06:44:07.099Z,15.70
2022-08-25T06:46:36.284Z,15.70
2022-08-25T06:49:06.674Z,15.80
2022-08-25T06:51:36.263Z,15.80
2022-08-25T06:54:06.617Z,15.80
2022-08-25T06:56:34.768Z,15.80
2022-08-25T06:59:04.161Z,15.80
2022-08-25T07:01:33.531Z,15.80
2022-08-25T07:04:04.995Z,15.80
2022-08-25T07:06:36.053Z,15.90
2022-08-25T07:09:08.757Z,15.90
2022-08-25T07:11:36.743Z,15.90
2022-08-25T07:14:06.628Z,15.90
2022-08-25T07:16:36.075Z,15.90
2022-08-25T07:19:05.406Z,16.00
2022-08-25T07:21:35.939Z,16.00
2022-08-25T07:24:09.779Z,16.10
2022-08-25T07:26:39.344Z,16.10
2022-08-25T07:29:14.018Z,16.10
2022-08-25T07:31:42.073Z,16.10
2022-08-25T07:34:28.780Z,16.10
2022-08-25T07:36:57.439Z,16.00
2022-08-25T07:39:26.417Z,15.90
2022-08-25T07:41:54.539Z,15.90
2022-08-25T07:44:23.445Z,15.90
2022-08-25T07:46:51.999Z,15.90
2022-08-25T07:49:23.731Z,15.90
2022-08-25T07:52:05.564Z,16.00
2022-08-25T07:54:38.151Z,15.90
2022-08-25T07:57:09.043Z,15.90
2022-08-25T07:59:41.967Z,16.00
2022-08-25T08:02:18.141Z,16.00
2022-08-25T08:04:53.893Z,16.00
2022-08-25T08:07:42.064Z,16.00
2022-08-25T08:13:02.235Z,16.10
2022-08-25T08:15:30.531Z,16.10
2022-08-25T08:17:59.875Z,16.10
2022-08-25T08:20:29.002Z,16.10
2022-08-25T08:22:57.201Z,16.00
2022-08-25T08:25:27.171Z,16.00
2022-08-25T08:27:55.931Z,16.00
2022-08-25T08:30:26.304Z,16.10
2022-08-25T08:33:11.672Z,16.10
2022-08-25T08:35:43.359Z,16.10
2022-08-25T08:38:17.258Z,16.20
2022-08-25T08:41:23.037Z,16.20
2022-08-25T08:44:00.234Z,16.20
2022-08-25T08:46:41.039Z,16.20
2022-08-25T08:49:23.142Z,16.20
2022-08-25T08:52:01.776Z,16.30
2022-08-25T08:54:36.245Z,16.30
2022-08-25T08:57:19.731Z,16.30
2022-08-25T08:59:55.393Z,16.30
2022-08-25T09:02:39.614Z,16.40
2022-08-25T09:05:23.033Z,16.40
2022-08-25T09:07:56.958Z,16.40
2022-08-25T09:10:29.018Z,16.40
2022-08-25T09:13:15.677Z,16.40
2022-08-25T09:16:20.537Z,16.50
2022-08-25T09:19:51.632Z,16.50
2022-08-25T09:22:35.454Z,16.50
2022-08-25T09:25:53.543Z,16.50
2022-08-25T09:28:28.373Z,16.60
2022-08-25T09:31:12.518Z,16.70
2022-08-25T09:33:41.642Z,16.80
2022-08-25T09:36:13.175Z,16.90
2022-08-25T09:38:41.099Z,16.90
2022-08-25T09:41:08.998Z,16.90
2022-08-25T09:43:42.366Z,16.90
2022-08-25T09:46:20.849Z,16.80
2022-08-25T09:48:57.602Z,16.90
2022-08-25T09:51:29.298Z,16.90
2022-08-25T09:54:15.763Z,16.80
2022-08-25T09:56:50.918Z,16.80
2022-08-25T09:59:34.734Z,16.80
2022-08-25T10:02:26.052Z,16.70
2022-08-25T10:04:55.933Z,16.70
2022-08-25T10:07:39.740Z,16.60
2022-08-25T10:10:22.995Z,16.60
2022-08-25T10:12:51.724Z,16.60
2022-08-25T10:15:34.862Z,16.70
2022-08-25T10:18:32.054Z,16.70
2022-08-25T10:21:09.222Z,16.80
2022-08-25T10:23:44.916Z,16.70
2022-08-25T10:26:34.816Z,16.70
2022-08-25T10:29:09.854Z,16.70
2022-08-25T10:32:11.489Z,16.70
2022-08-25T10:34:54.695Z,16.70
2022-08-25T10:37:50.249Z,16.70
2022-08-25T10:40:28.656Z,16.80
2022-08-25T10:43:07.949Z,16.80
2022-08-25T10:45:49.590Z,16.90
2022-08-25T10:48:40.968Z,16.90
2022-08-25T10:51:25.703Z,17.00
2022-08-25T10:54:02.327Z,17.00
2022-08-25T10:56:41.493Z,17.10
2022-08-25T10:59:35.558Z,17.20
2022-08-25T11:02:20.939Z,17.40
2022-08-25T11:05:07.901Z,17.60
2022-08-25T11:07:45.461Z,17.60
2022-08-25T11:10:22.646Z,17.70
2022-08-25T11:12:56.946Z,17.70
2022-08-25T11:15:41.431Z,17.80
2022-08-25T11:18:17.894Z,17.90
2022-08-25T11:21:08.673Z,17.90
2022-08-25T11:23:41.665Z,17.90
2022-08-25T11:26:12.383Z,17.90
2022-08-25T11:29:11.502Z,18.00
2022-08-25T11:31:47.342Z,18.20
2022-08-25T11:34:21.723Z,18.20
2022-08-25T11:37:01.296Z,18.30
2022-08-25T11:40:07.270Z,18.40
2022-08-25T11:42:58.379Z,18.50
2022-08-25T11:45:48.363Z,18.70
2022-08-25T11:48:29.006Z,18.70
2022-08-25T11:51:04.862Z,18.80
2022-08-25T11:53:37.667Z,18.90
2022-08-25T11:56:36.409Z,18.90
2022-08-25T11:59:08.725Z,19.10
2022-08-25T12:01:46.147Z,19.20
2022-08-25T12:04:37.812Z,19.40
2022-08-25T12:07:21.023Z,19.50
2022-08-25T12:09:54.176Z,19.60
2022-08-25T12:12:32.796Z,19.70
2022-08-25T12:15:31.424Z,19.80
2022-08-25T12:18:08.872Z,19.90
2022-08-25T12:20:55.368Z,20.10
2022-08-25T12:23:44.941Z,20.30
2022-08-25T12:26:24.841Z,20.40
2022-08-25T12:29:02.325Z,20.40
2022-08-25T12:31:59.218Z,20.40
2022-08-25T12:35:00.579Z,20.40
2022-08-25T12:37:28.947Z,20.60
2022-08-25T12:40:05.894Z,20.70
2022-08-25T12:42:38.268Z,20.60
2022-08-25T12:45:21.268Z,20.50
2022-08-25T12:47:50.073Z,20.50
2022-08-25T12:50:33.629Z,20.60
2022-08-25T12:53:38.993Z,21.00
2022-08-25T12:56:27.821Z,21.20
2022-08-25T12:59:16.386Z,21.20
2022-08-25T13:02:11.070Z,21.20
2022-08-25T13:04:58.785Z,21.20
2022-08-25T13:07:57.005Z,21.40
2022-08-25T13:11:12.348Z,21.40
2022-08-25T13:13:57.679Z,21.40
2022-08-25T13:16:29.913Z,21.40
2022-08-25T13:18:59.683Z,21.70
2022-08-25T13:21:39.061Z,22.40
2022-08-25T13:24:17.608Z,23.10
2022-08-25T13:26:48.250Z,23.70
2022-08-25T13:29:21.284Z,24.30
2022-08-25T13:31:57.084Z,24.50
2022-08-25T13:34:34.694Z,24.60
2022-08-25T13:37:29.916Z,24.70
2022-08-25T13:40:19.647Z,24.70
2022-08-25T13:42:55.522Z,25.10
2022-08-25T13:45:31.958Z,25.90
2022-08-25T13:47:59.879Z,26.60
2022-08-25T13:50:28.451Z,26.90
2022-08-25T13:53:01.097Z,26.90
2022-08-25T13:55:51.502Z,26.70
2022-08-25T13:58:38.683Z,26.10
2022-08-25T14:01:47.153Z,25.60
2022-08-25T14:04:51.664Z,25.30
2022-08-25T14:07:23.187Z,25.90
2022-08-25T14:10:01.197Z,26.40
2022-08-25T14:12:46.588Z,27.30
2022-08-25T14:15:17.609Z,28.10
2022-08-25T14:18:05.974Z,28.80
2022-08-25T14:20:36.121Z,29.00
2022-08-25T14:23:18.754Z,28.90
2022-08-25T14:25:47.757Z,28.90
2022-08-25T14:28:18.920Z,28.90
2022-08-25T14:30:54.310Z,28.60
2022-08-25T14:33:28.668Z,28.50
2022-08-25T14:35:59.889Z,27.90
2022-08-25T14:38:27.470Z,26.80
2022-08-25T14:40:55.330Z,25.90
2022-08-25T14:43:32.101Z,25.00
2022-08-25T14:46:03.196Z,24.70
2022-08-25T14:48:39.372Z,24.40
2022-08-25T14:51:09.020Z,24.80
2022-08-25T14:53:36.673Z,24.90
2022-08-25T14:56:06.891Z,25.30
2022-08-25T14:58:51.030Z,25.60
2022-08-25T15:01:28.389Z,26.10
2022-08-25T15:04:20.523Z,26.80
2022-08-25T15:06:54.770Z,27.80
2022-08-25T15:09:24.211Z,28.30
2022-08-25T15:11:55.166Z,28.50
2022-08-25T15:14:29.057Z,28.90
2022-08-25T15:17:02.993Z,29.50
2022-08-25T15:19:31.064Z,29.90
2022-08-25T15:21:59.849Z,29.60
2022-08-25T15:24:28.401Z,29.80
2022-08-25T15:27:01.270Z,30.10
2022-08-25T15:29:30.886Z,30.40
2022-08-25T15:32:00.317Z,29.90
2022-08-25T15:34:29.310Z,29.50
2022-08-25T15:36:58.478Z,29.50
2022-08-25T15:39:28.485Z,29.70
2022-08-25T15:41:57.150Z,30.10
2022-08-25T15:44:29.391Z,30.70
2022-08-25T15:46:59.424Z,30.90
2022-08-25T15:49:29.719Z,31.10
2022-08-25T15:51:59.305Z,31.10
2022-08-25T15:54:30.770Z,31.20
2022-08-25T15:56:59.933Z,31.40
2022-08-25T15:59:28.451Z,31.50
2022-08-25T16:01:56.740Z,31.30
2022-08-25T16:04:27.664Z,30.60
2022-08-25T16:06:56.147Z,30.00
2022-08-25T16:09:24.069Z,30.00
2022-08-25T16:11:56.769Z,30.20
2022-08-25T16:14:27.836Z,30.40
2022-08-25T16:16:58.438Z,30.50
2022-08-25T16:19:30.350Z,30.20
2022-08-25T16:21:59.959Z,29.30
2022-08-25T16:24:29.807Z,28.70
2022-08-25T16:27:11.665Z,28.10
2022-08-25T16:29:42.317Z,28.30
2022-08-25T16:32:13.544Z,28.90
2022-08-25T16:34:42.039Z,29.50
2022-08-25T16:37:09.888Z,30.20
2022-08-25T16:39:40.054Z,30.60
2022-08-25T16:42:09.024Z,30.60
2022-08-25T16:44:37.514Z,30.60
2022-08-25T16:47:08.778Z,30.50
2022-08-25T16:49:37.254Z,30.40
2022-08-25T16:52:28.289Z,30.20
2022-08-25T16:55:16.178Z,30.30
2022-08-25T16:57:53.571Z,29.90
2022-08-25T17:00:24.938Z,29.70
2022-08-25T17:03:00.785Z,29.50
2022-08-25T17:05:29.486Z,29.50
2022-08-25T17:08:18.346Z,29.60
2022-08-25T17:10:46.584Z,29.50
2022-08-25T17:13:14.498Z,29.40
2022-08-25T17:15:45.018Z,29.30
2022-08-25T17:18:13.797Z,29.10
2022-08-25T17:20:44.808Z,29.20
2022-08-25T17:23:13.084Z,29.10
2022-08-25T17:25:42.801Z,29.20
2022-08-25T17:28:12.975Z,29.10
2022-08-25T17:30:40.984Z,29.10
2022-08-25T17:33:08.709Z,29.10
2022-08-25T17:35:41.420Z,28.90
2022-08-25T17:38:09.713Z,28.40
2022-08-25T17:40:38.015Z,28.20
2022-08-25T17:43:09.071Z,27.90
2022-08-25T17:45:39.111Z,27.30
2022-08-25T17:48:09.198Z,26.90
2022-08-25T17:50:39.206Z,26.90
2022-08-25T17:53:09.354Z,26.80
2022-08-25T17:55:38.696Z,26.70
2022-08-25T17:58:11.927Z,26.60
2022-08-25T18:00:43.914Z,26.40
2022-08-25T18:03:12.261Z,26.30
2022-08-25T18:05:40.159Z,26.20
2022-08-25T18:08:10.569Z,26.10
2022-08-25T18:10:39.624Z,25.90
2022-08-25T18:13:07.602Z,25.60
2022-08-25T18:15:35.661Z,25.60
2022-08-25T18:18:04.689Z,25.50
2022-08-25T18:20:32.957Z,25.40
2022-08-25T18:23:19.873Z,25.20
2022-08-25T18:26:06.765Z,25.10
2022-08-25T18:28:53.512Z,25.00
2022-08-25T18:31:21.518Z,24.50
2022-08-25T18:33:50.871Z,23.70
2022-08-25T18:36:22.618Z,22.80
2022-08-25T18:39:10.775Z,22.00
2022-08-25T18:41:45.189Z,21.40
2022-08-25T18:44:13.062Z,20.80
2022-08-25T18:46:45.550Z,20.40
2022-08-25T18:49:15.795Z,20.10
2022-08-25T18:51:45.129Z,19.90
2022-08-25T18:54:22.843Z,19.70
2022-08-25T18:56:53.496Z,19.40
2022-08-25T18:59:23.678Z,19.30
2022-08-25T19:01:53.975Z,19.10
2022-08-25T19:04:28.358Z,18.90
2022-08-25T19:07:00.962Z,18.80
2022-08-25T19:09:29.693Z,18.60
2022-08-25T19:11:59.047Z,18.40
2022-08-25T19:14:27.156Z,18.30
2022-08-25T19:16:57.818Z,18.00
2022-08-25T19:19:25.971Z,17.90
2022-08-25T19:21:53.784Z,17.80
2022-08-25T19:24:21.657Z,17.60
2022-08-25T19:26:53.789Z,17.50
2022-08-25T19:29:23.174Z,17.40
2022-08-25T19:31:51.328Z,17.30
2022-08-25T19:34:28.306Z,17.20
2022-08-25T19:37:01.216Z,17.10
2022-08-25T19:39:30.266Z,17.10
2022-08-25T19:41:58.482Z,17.00
2022-08-25T19:44:28.203Z,16.90
2022-08-25T19:46:57.165Z,16.80
2022-08-25T19:49:31.487Z,16.70
2022-08-25T19:52:01.112Z,16.60
2022-08-25T19:54:33.376Z,16.50
2022-08-25T19:57:02.733Z,16.50
2022-08-25T19:59:42.607Z,16.40
2022-08-25T20:02:15.374Z,16.30
2022-08-25T20:04:49.768Z,16.20
2022-08-25T20:07:21.208Z,16.10
2022-08-25T20:09:49.399Z,16.00
2022-08-25T20:12:18.301Z,15.90
2022-08-25T20:14:47.187Z,15.90
2022-08-25T20:17:23.766Z,15.80
2022-08-25T20:19:59.303Z,15.70
2022-08-25T20:22:30.780Z,15.60
2022-08-25T20:25:07.610Z,15.60
2022-08-25T20:27:51.149Z,15.50
2022-08-25T20:30:25.252Z,15.50
2022-08-25T20:32:55.718Z,15.40
2022-08-25T20:35:26.834Z,15.40
2022-08-25T20:37:58.176Z,15.40
2022-08-25T20:40:29.962Z,15.40
2022-08-25T20:43:03.320Z,15.30
2022-08-25T20:45:31.616Z,15.30
2022-08-25T20:47:59.611Z,15.20
2022-08-25T20:50:28.597Z,15.20
2022-08-25T20:52:58.322Z,15.10
2022-08-25T20:55:27.817Z,15.10
2022-08-25T20:57:56.085Z,14.90
2022-08-25T21:00:24.913Z,14.90
2022-08-25T21:02:53.487Z,14.80
2022-08-25T21:05:21.712Z,14.80
2022-08-25T21:07:49.360Z,14.70
2022-08-25T21:10:17.299Z,14.70
2022-08-25T21:12:45.318Z,14.60
2022-08-25T21:15:13.824Z,14.60
2022-08-25T21:17:50.662Z,14.50
2022-08-25T21:20:18.642Z,14.40
2022-08-25T21:22:46.197Z,14.40
2022-08-25T21:25:14.553Z,14.40
2022-08-25T21:27:43.346Z,14.40
2022-08-25T21:30:11.515Z,14.40
2022-08-25T21:32:39.005Z,14.40
2022-08-25T21:35:07.940Z,14.40
2022-08-25T21:37:36.001Z,14.40
2022-08-25T21:40:06.999Z,14.40
2022-08-25T21:42:36.814Z,14.40
2022-08-25T21:45:04.997Z,14.30
2022-08-25T21:47:42.543Z,14.30
2022-08-25T21:50:11.993Z,14.30
2022-08-25T21:52:43.528Z,14.20
2022-08-25T21:55:15.833Z,14.20
2022-08-25T21:57:44.309Z,14.20
2022-08-25T22:00:14.834Z,14.10
2022-08-25T22:02:46.677Z,14.10
2022-08-25T22:05:15.454Z,14.10
2022-08-25T22:07:44.347Z,14.10
2022-08-25T22:10:16.695Z,14.00
2022-08-25T22:12:47.208Z,13.90
2022-08-25T22:15:17.928Z,13.90
2022-08-25T22:17:48.091Z,13.90
2022-08-25T22:20:17.919Z,13.90
2022-08-25T22:22:45.760Z,13.80
2022-08-25T22:25:14.595Z,13.70
2022-08-25T22:27:42.571Z,13.60
2022-08-25T22:30:11.759Z,13.50
2022-08-25T22:32:39.407Z,13.50
2022-08-25T22:35:08.312Z,13.40
2022-08-25T22:37:37.436Z,13.40
2022-08-25T22:40:05.985Z,13.40
2022-08-25T22:42:33.889Z,13.40
2022-08-25T22:45:01.668Z,13.30
2022-08-25T22:47:29.269Z,13.30
2022-08-25T22:49:59.092Z,13.20
2022-08-25T22:52:33.240Z,13.10
2022-08-25T22:55:02.876Z,13.10
2022-08-25T22:57:30.910Z,13.00
2022-08-25T22:59:59.353Z,13.00
2022-08-25T23:02:30.332Z,12.90
2022-08-25T23:05:00.808Z,12.90
2022-08-25T23:07:29.026Z,12.90
2022-08-25T23:09:59.867Z,12.80
2022-08-25T23:12:27.586Z,12.80
2022-08-25T23:14:55.873Z,12.80
2022-08-25T23:17:23.546Z,12.70
2022-08-25T23:19:51.398Z,12.60
2022-08-25T23:22:19.852Z,12.60
2022-08-25T23:24:52.066Z,12.50
2022-08-25T23:27:22.144Z,12.40
2022-08-25T23:29:50.265Z,12.40
2022-08-25T23:32:18.728Z,12.40
2022-08-25T23:34:47.182Z,12.40
2022-08-25T23:37:16.259Z,12.30
2022-08-25T23:39:49.946Z,12.30
2022-08-25T23:42:19.950Z,12.30
2022-08-25T23:44:48.767Z,12.20
2022-08-25T23:47:16.792Z,12.30
2022-08-25T23:49:45.125Z,12.20
2022-08-25T23:52:12.698Z,12.20
2022-08-25T23:54:40.332Z,12.20
2022-08-25T23:57:08.834Z,12.10
2022-08-25T23:59:37.841Z,12.10
